Time;durP1;ratioP1;P1;durP2;ratioP2;P2;SDS_P1;SDS_P2;PMS_P1;PMS_P2;Temp;Humidity;BMP_temperature;BMP_pressure;BME280_temperature;BME280_humidity;BME280_pressure;Samples;Min_cycle;Max_cycle;Signal;HPM_P1;HPM_P2
2023/09/10 00:02:23;;;;;;;10.27;8.73;;;;;;;23.82;65.74;101680.09;4988262;28;20034;-56
2023/09/10 00:04:49;;;;;;;9.95;8.95;;;;;;;23.81;65.84;101673.78;4983522;28;20433;-56
2023/09/10 00:07:14;;;;;;;13.80;10.25;;;;;;;23.80;66.21;101677.53;4986499;28;20042;-55
2023/09/10 00:09:40;;;;;;;13.40;10.75;;;;;;;23.80;65.91;101676.69;4987355;28;20023;-56
2023/09/10 00:12:05;;;;;;;11.07;9.98;;;;;;;23.79;66.01;101681.25;4987326;28;20058;-56
2023/09/10 00:14:31;;;;;;;10.18;9.18;;;;;;;23.79;65.75;101678.53;4987103;28;20100;-56
2023/09/10 00:16:56;;;;;;;10.82;9.77;;;;;;;23.79;65.55;101681.25;4987139;28;20411;-56
2023/09/10 00:19:21;;;;;;;11.00;9.98;;;;;;;23.79;65.87;101674.97;4985850;28;20026;-56
2023/09/10 00:21:47;;;;;;;10.75;9.60;;;;;;;23.78;66.04;101673.25;4986174;28;20038;-56
2023/09/10 00:24:13;;;;;;;12.55;9.70;;;;;;;23.78;65.82;101674.13;4986208;28;20057;-56
2023/09/10 00:26:38;;;;;;;10.95;9.85;;;;;;;23.78;65.48;101665.09;4986003;28;20038;-56
2023/09/10 00:29:04;;;;;;;12.32;9.15;;;;;;;23.78;65.47;101674.13;4985120;28;20058;-56
2023/09/10 00:31:30;;;;;;;13.23;10.25;;;;;;;23.77;65.71;101666.94;4984848;28;20092;-56
2023/09/10 00:33:55;;;;;;;11.25;9.95;;;;;;;23.77;65.87;101668.81;4985142;28;20394;-56
2023/09/10 00:36:20;;;;;;;13.32;10.52;;;;;;;23.76;65.62;101667.97;4984441;28;20059;-56
2023/09/10 00:38:46;;;;;;;13.00;10.77;;;;;;;23.76;65.36;101670.69;4985176;28;20043;-56
2023/09/10 00:41:11;;;;;;;11.32;10.23;;;;;;;23.76;65.74;101667.09;4989191;28;20041;-56
2023/09/10 00:43:37;;;;;;;11.23;10.07;;;;;;;23.76;65.82;101664.38;4987545;28;20066;-56
2023/09/10 00:46:03;;;;;;;12.13;10.48;;;;;;;23.76;65.72;101667.97;4993757;28;20030;-56
2023/09/10 00:48:29;;;;;;;11.45;10.25;;;;;;;23.75;65.39;101655.38;4994753;28;20033;-56
2023/09/10 00:50:55;;;;;;;10.82;9.75;;;;;;;23.75;65.61;101663.53;4989531;28;20034;-56
2023/09/10 00:53:21;;;;;;;11.10;9.95;;;;;;;23.74;65.69;101661.84;4989310;28;20030;-56
2023/09/10 00:55:47;;;;;;;12.50;10.57;;;;;;;23.75;65.37;101662.69;4995208;28;20034;-56
2023/09/10 00:58:13;;;;;;;11.57;10.38;;;;;;;23.74;65.12;101664.56;4989447;28;20488;-56
2023/09/10 01:00:42;;;;;;;13.77;9.95;;;;;;;23.74;65.37;101660.97;4988966;28;20034;-56
2023/09/10 01:03:08;;;;;;;10.85;9.05;;;;;;;23.75;65.36;101663.53;4989658;28;20396;-56
2023/09/10 01:05:35;;;;;;;12.90;10.35;;;;;;;23.74;65.29;101666.41;5002786;28;20031;-56
2023/09/10 01:08:03;;;;;;;11.77;10.30;;;;;;;23.73;65.27;101671.00;4989983;28;20022;-56
2023/09/10 01:10:39;;;;;;;11.65;10.45;;;;;;;23.73;65.12;101665.56;4991860;28;20037;-55
2023/09/10 01:13:23;;;;;;;11.70;10.50;;;;;;;23.75;65.01;101660.81;4988913;28;20030;-56
2023/09/10 01:15:56;;;;;;;11.85;10.55;;;;;;;23.74;65.19;101663.69;4986604;28;20037;-56
2023/09/10 01:18:33;;;;;;;12.48;10.05;;;;;;;23.73;65.01;101657.41;4988575;28;20059;-56
2023/09/10 01:21:11;;;;;;;12.07;10.35;;;;;;;23.73;64.96;101665.56;4989160;28;20033;-56
2023/09/10 01:23:57;;;;;;;12.35;11.07;;;;;;;23.73;65.14;101656.56;4987752;28;20038;-56
2023/09/10 01:26:22;;;;;;;12.48;10.50;;;;;;;23.73;65.32;101664.72;4981664;28;20041;-56
2023/09/10 01:28:48;;;;;;;11.85;10.50;;;;;;;23.72;64.79;101657.56;4989968;28;20109;-56
2023/09/10 01:31:13;;;;;;;13.88;10.65;;;;;;;23.72;65.22;101657.56;4990108;28;20027;-56
2023/09/10 01:33:44;;;;;;;12.10;10.88;;;;;;;23.71;65.00;101656.72;4990045;28;20053;-55
2023/09/10 01:36:27;;;;;;;12.05;10.48;;;;;;;23.73;64.83;101659.28;4988926;28;20522;-56
2023/09/10 01:39:18;;;;;;;11.60;10.43;;;;;;;23.74;65.19;101658.25;4988277;28;20384;-56
2023/09/10 01:41:46;;;;;;;11.57;10.43;;;;;;;23.70;65.29;101660.44;4988926;28;20023;-56
2023/09/10 01:44:14;;;;;;;13.63;11.30;;;;;;;23.69;65.19;101658.75;4988821;28;20027;-56
2023/09/10 01:46:40;;;;;;;12.07;10.88;;;;;;;23.70;65.00;101662.31;4989290;28;20535;-55
2023/09/10 01:49:05;;;;;;;13.35;11.85;;;;;;;23.69;64.62;101663.34;4987194;28;20022;-56
2023/09/10 01:51:31;;;;;;;11.80;10.60;;;;;;;23.70;64.86;101668.59;4988156;28;20093;-56
2023/09/10 01:53:56;;;;;;;13.02;10.25;;;;;;;23.69;64.92;101668.78;4988118;28;20081;-56
2023/09/10 01:56:22;;;;;;;13.27;11.98;;;;;;;23.68;64.99;101673.34;4987766;28;20042;-56
2023/09/10 01:58:48;;;;;;;13.38;11.30;;;;;;;23.68;65.10;101667.06;4987671;28;20057;-57
2023/09/10 02:01:13;;;;;;;13.10;11.80;;;;;;;23.68;64.91;101673.34;4988078;28;20035;-56
2023/09/10 02:03:38;;;;;;;13.05;11.10;;;;;;;23.68;65.01;101672.53;4987994;28;20089;-56
2023/09/10 02:06:04;;;;;;;14.50;11.68;;;;;;;23.68;65.04;101678.81;4988686;28;20515;-56
2023/09/10 02:08:30;;;;;;;12.80;11.40;;;;;;;23.66;64.51;101671.84;4990245;28;20484;-56
2023/09/10 02:10:55;;;;;;;12.63;11.27;;;;;;;23.68;64.67;101675.22;4989584;28;20053;-55
2023/09/10 02:13:21;;;;;;;13.15;11.27;;;;;;;23.67;64.75;101677.09;4995019;28;20057;-56
2023/09/10 02:15:46;;;;;;;13.00;11.80;;;;;;;23.67;64.82;101679.84;4988517;28;20038;-56
2023/09/10 02:18:12;;;;;;;13.23;11.80;;;;;;;23.65;64.58;101673.72;4988278;28;20440;-56
2023/09/10 02:20:37;;;;;;;12.63;11.35;;;;;;;23.66;64.96;101675.41;4988678;28;20397;-56
2023/09/10 02:23:03;;;;;;;13.52;12.10;;;;;;;23.66;64.84;101680.00;4987802;28;20038;-56
2023/09/10 02:25:29;;;;;;;14.20;11.38;;;;;;;23.66;64.41;101685.44;4988124;28;20034;-56
2023/09/10 02:27:54;;;;;;;12.93;11.52;;;;;;;23.65;64.55;101689.19;4987508;28;20484;-56
2023/09/10 02:30:20;;;;;;;14.38;12.88;;;;;;;23.65;64.80;101683.75;4987285;28;20478;-56
2023/09/10 02:32:45;;;;;;;13.32;12.02;;;;;;;23.64;64.73;101677.44;4990221;28;20493;-56
2023/09/10 02:35:10;;;;;;;12.50;11.13;;;;;;;23.65;64.83;101683.75;4987209;28;20129;-56
2023/09/10 02:37:36;;;;;;;13.50;12.10;;;;;;;23.64;64.50;101684.75;4983034;28;20362;-56
2023/09/10 02:40:01;;;;;;;13.45;12.07;;;;;;;23.64;64.58;101685.59;4988310;28;20151;-56
2023/09/10 02:42:27;;;;;;;12.98;11.63;;;;;;;23.64;64.78;101684.75;4987121;28;20393;-56
2023/09/10 02:44:52;;;;;;;15.23;12.23;;;;;;;23.64;64.68;101673.88;4986927;28;20054;-56
2023/09/10 02:47:17;;;;;;;12.90;11.65;;;;;;;23.63;64.72;101681.19;4986174;28;20431;-56
2023/09/10 02:49:43;;;;;;;13.52;12.13;;;;;;;23.64;64.84;101671.16;4986434;28;20062;-56
2023/09/10 02:52:08;;;;;;;12.18;10.98;;;;;;;23.62;64.68;101674.03;4986149;28;20488;-56
2023/09/10 02:54:35;;;;;;;13.43;12.02;;;;;;;23.62;64.54;101674.03;4988239;28;20401;-56
2023/09/10 02:57:00;;;;;;;14.25;12.20;;;;;;;23.62;64.31;101682.19;4987803;28;20043;-56
2023/09/10 02:59:26;;;;;;;13.20;11.88;;;;;;;23.62;64.55;101683.03;4988492;28;20031;-56
2023/09/10 03:01:52;;;;;;;15.27;12.75;;;;;;;23.61;64.47;101678.63;4987960;28;20023;-56
2023/09/10 03:04:19;;;;;;;13.48;12.13;;;;;;;23.60;64.67;101676.91;4987801;28;20030;-56
2023/09/10 03:06:45;;;;;;;13.82;11.65;;;;;;;23.60;64.19;101682.34;4987003;28;20033;-56
2023/09/10 03:09:14;;;;;;;14.00;12.40;;;;;;;23.59;64.21;101677.94;4986956;28;20064;-56
2023/09/10 03:11:40;;;;;;;13.98;12.43;;;;;;;23.61;63.95;101688.66;4986974;28;20041;-56
2023/09/10 03:14:06;;;;;;;13.88;12.48;;;;;;;23.60;64.19;101684.22;4987053;28;20034;-56
2023/09/10 03:16:32;;;;;;;14.82;12.70;;;;;;;23.60;63.86;101685.06;4986658;28;20038;-56
2023/09/10 03:18:57;;;;;;;13.70;12.30;;;;;;;23.60;64.47;101667.91;4985808;28;20540;-56
2023/09/10 03:21:24;;;;;;;13.77;12.35;;;;;;;23.60;64.32;101676.06;4985985;28;20038;-56
2023/09/10 03:23:49;;;;;;;15.07;13.07;;;;;;;23.59;64.21;101677.94;4985599;28;20038;-56
2023/09/10 03:26:15;;;;;;;15.02;13.43;;;;;;;23.58;64.20;101669.94;4985808;28;20466;-56
2023/09/10 03:28:41;;;;;;;14.10;12.57;;;;;;;23.58;64.64;101672.66;4986410;28;20026;-56
2023/09/10 03:31:06;;;;;;;14.85;13.32;;;;;;;23.58;64.28;101672.66;4986268;28;20038;-56
2023/09/10 03:33:32;;;;;;;15.23;13.13;;;;;;;23.57;64.15;101670.94;4987618;28;20030;-56
2023/09/10 03:35:57;;;;;;;13.98;12.68;;;;;;;23.57;64.36;101670.94;4986785;28;20090;-56
2023/09/10 03:38:22;;;;;;;13.93;12.63;;;;;;;23.57;63.86;101666.38;4986274;28;20034;-56
2023/09/10 03:40:48;;;;;;;15.95;13.65;;;;;;;23.57;64.39;101657.34;4986101;28;20042;-56
2023/09/10 03:43:14;;;;;;;16.13;14.43;;;;;;;23.56;64.30;101671.97;4986105;28;20058;-56
2023/09/10 03:45:40;;;;;;;15.40;13.50;;;;;;;23.56;64.34;101670.09;4987899;28;20037;-56
2023/09/10 03:48:05;;;;;;;14.60;13.02;;;;;;;23.56;64.00;101671.97;4986579;28;20105;-56
2023/09/10 03:50:30;;;;;;;15.45;13.88;;;;;;;23.55;64.00;101667.53;4986266;28;20085;-56
2023/09/10 03:52:56;;;;;;;15.13;13.57;;;;;;;23.55;64.05;101668.41;4986865;28;20109;-56
2023/09/10 03:55:21;;;;;;;15.15;13.68;;;;;;;23.55;63.79;101656.66;4987143;28;20122;-56
2023/09/10 03:57:47;;;;;;;15.95;14.35;;;;;;;23.55;64.10;101660.25;4989008;28;20110;-55
2023/09/10 04:00:12;;;;;;;14.75;12.73;;;;;;;23.55;63.45;101659.38;4984191;28;20392;-57
2023/09/10 04:02:38;;;;;;;15.13;13.68;;;;;;;23.55;64.06;101656.66;4986181;28;20110;-56
2023/09/10 04:05:04;;;;;;;13.80;12.40;;;;;;;23.55;63.57;101653.94;4986197;28;20034;-56
2023/09/10 04:07:30;;;;;;;16.27;14.65;;;;;;;23.53;64.51;101650.53;4984319;28;20157;-56
2023/09/10 04:09:55;;;;;;;15.70;14.18;;;;;;;23.54;63.97;101650.38;4985303;28;20385;-56
2023/09/10 04:12:21;;;;;;;15.93;14.20;;;;;;;23.54;63.95;101650.38;4985543;28;20038;-56
2023/09/10 04:14:46;;;;;;;16.02;13.75;;;;;;;23.54;63.60;101650.38;4985912;28;20037;-56
2023/09/10 04:17:16;;;;;;;14.93;13.40;;;;;;;23.52;63.76;101652.41;4986076;28;20045;-56
2023/09/10 04:19:41;;;;;;;17.48;14.40;;;;;;;23.54;63.71;101650.38;4989356;28;20038;-56
2023/09/10 04:22:07;;;;;;;19.52;15.63;;;;;;;23.54;64.12;101650.38;4986999;28;20046;-56
2023/09/10 04:24:33;;;;;;;15.23;13.63;;;;;;;23.54;63.89;101654.97;4986638;28;20034;-56
2023/09/10 04:26:58;;;;;;;18.17;15.60;;;;;;;23.53;64.05;101648.69;4985984;28;20062;-56
2023/09/10 04:29:24;;;;;;;16.13;14.52;;;;;;;23.53;63.98;101642.38;4986287;28;20054;-56
2023/09/10 04:31:50;;;;;;;17.65;14.73;;;;;;;23.53;63.73;101653.25;4985588;28;20089;-56
2023/09/10 04:34:16;;;;;;;16.85;14.90;;;;;;;23.53;63.63;101647.81;4985092;28;20469;-56
2023/09/10 04:36:41;;;;;;;16.10;14.45;;;;;;;23.52;63.83;101649.69;4984815;28;20054;-56
2023/09/10 04:39:09;;;;;;;19.00;14.73;;;;;;;23.53;63.39;101650.53;4985331;28;20093;-56
2023/09/10 04:41:36;;;;;;;17.05;15.23;;;;;;;23.52;63.94;101648.84;4986110;28;20525;-56
2023/09/10 04:44:02;;;;;;;19.33;15.57;;;;;;;23.52;63.54;101646.13;4985611;28;20035;-56
2023/09/10 04:46:28;;;;;;;16.65;14.95;;;;;;;23.51;63.65;101649.84;4986015;28;20122;-56
2023/09/10 04:48:53;;;;;;;17.40;15.63;;;;;;;23.51;63.59;101652.56;4986363;28;20544;-56
2023/09/10 04:51:19;;;;;;;16.73;15.05;;;;;;;23.51;63.70;101656.13;4985853;28;20030;-56
2023/09/10 04:53:44;;;;;;;18.92;16.92;;;;;;;23.50;63.91;101654.44;4986434;28;20026;-56
2023/09/10 04:56:12;;;;;;;18.60;16.08;;;;;;;23.50;63.87;101651.72;4986674;28;20041;-56
2023/09/10 04:58:38;;;;;;;18.15;15.73;;;;;;;23.50;63.55;101654.44;4986138;28;20111;-56
2023/09/10 05:01:03;;;;;;;18.88;16.90;;;;;;;23.50;63.68;101650.88;4986418;28;20169;-56
2023/09/10 05:03:29;;;;;;;17.42;15.48;;;;;;;23.50;63.41;101653.59;4983866;28;20042;-56
2023/09/10 05:06:01;;;;;;;18.08;16.27;;;;;;;23.49;63.79;101658.16;4985099;28;20481;-56
2023/09/10 05:08:27;;;;;;;18.40;16.50;;;;;;;23.50;63.49;101656.31;4985103;28;20037;-56
2023/09/10 05:10:53;;;;;;;17.90;16.13;;;;;;;23.50;63.49;101667.19;4985278;28;20109;-56
2023/09/10 05:13:19;;;;;;;20.88;16.77;;;;;;;23.49;63.41;101662.75;4985566;28;20489;-56
2023/09/10 05:15:46;;;;;;;18.05;16.08;;;;;;;23.49;63.81;101668.19;4985679;28;20054;-56
2023/09/10 05:18:12;;;;;;;19.70;16.17;;;;;;;23.48;63.63;101666.50;4987842;28;20026;-57
2023/09/10 05:20:37;;;;;;;17.00;15.30;;;;;;;23.48;62.85;101667.34;4985687;28;20123;-56
2023/09/10 05:23:03;;;;;;;17.60;15.77;;;;;;;23.49;63.25;101673.63;4984565;28;20038;-56
2023/09/10 05:25:28;;;;;;;20.88;17.50;;;;;;;23.48;63.17;101667.34;4989438;28;20035;-56
2023/09/10 05:27:53;;;;;;;18.52;16.50;;;;;;;23.48;62.76;101666.50;4988212;28;20034;-56
2023/09/10 05:30:19;;;;;;;16.58;14.88;;;;;;;23.47;63.07;101671.06;4988098;28;20039;-56
2023/09/10 05:32:44;;;;;;;18.92;16.25;;;;;;;23.47;63.04;101670.22;4987999;28;20169;-56
2023/09/10 05:35:10;;;;;;;17.77;16.02;;;;;;;23.48;62.92;101670.06;4990354;28;20054;-56
2023/09/10 05:37:36;;;;;;;17.75;15.85;;;;;;;23.48;62.93;101669.22;4990833;28;20477;-56
2023/09/10 05:40:02;;;;;;;18.70;15.68;;;;;;;23.48;62.50;101674.66;4997479;28;20144;-56
2023/09/10 05:42:28;;;;;;;16.77;14.98;;;;;;;23.47;63.13;101670.22;4989861;28;20033;-56
2023/09/10 05:44:53;;;;;;;17.02;15.23;;;;;;;23.47;62.49;101675.66;4989584;28;20076;-56
2023/09/10 05:47:20;;;;;;;17.08;14.90;;;;;;;23.48;62.70;101674.66;4989120;28;20029;-56
2023/09/10 05:49:47;;;;;;;15.85;14.20;;;;;;;23.47;62.67;101676.50;4989330;28;20396;-56
2023/09/10 05:52:13;;;;;;;16.85;14.55;;;;;;;23.47;62.29;101675.66;4988776;28;20034;-57
2023/09/10 05:54:38;;;;;;;18.55;16.65;;;;;;;23.48;63.35;101677.38;4988985;28;20042;-56
2023/09/10 05:57:03;;;;;;;16.48;14.55;;;;;;;23.48;62.43;101677.38;4988240;28;20073;-56
2023/09/10 05:59:29;;;;;;;21.85;15.80;;;;;;;23.48;62.88;101682.81;4987704;28;20026;-56
2023/09/10 06:01:54;;;;;;;16.55;14.88;;;;;;;23.47;62.85;101679.22;4991296;28;20031;-56
2023/09/10 06:04:20;;;;;;;16.48;14.93;;;;;;;23.48;62.81;101688.25;4990144;28;20412;-56
2023/09/10 06:06:45;;;;;;;16.67;14.98;;;;;;;23.48;62.60;101688.25;4987960;28;20038;-56
2023/09/10 06:09:10;;;;;;;19.02;16.02;;;;;;;23.47;62.50;101686.53;4992082;28;20034;-56
2023/09/10 06:11:36;;;;;;;15.27;13.80;;;;;;;23.49;62.38;101692.66;4987964;28;20101;-56
2023/09/10 06:14:01;;;;;;;13.65;12.25;;;;;;;23.49;62.58;101698.09;4992129;28;20029;-56
2023/09/10 06:16:26;;;;;;;14.15;12.65;;;;;;;23.50;62.51;101694.38;4988959;28;20142;-56
2023/09/10 06:18:52;;;;;;;16.05;14.13;;;;;;;23.49;62.45;101695.38;4987991;28;20096;-56
2023/09/10 06:21:17;;;;;;;12.63;11.32;;;;;;;23.49;62.47;101696.22;4988064;28;20144;-56
2023/09/10 06:23:42;;;;;;;14.15;12.68;;;;;;;23.50;62.18;101697.09;4987021;28;20034;-56
2023/09/10 06:26:08;;;;;;;12.63;11.32;;;;;;;23.51;62.49;101704.22;4988227;28;20445;-56
2023/09/10 06:28:33;;;;;;;11.43;10.35;;;;;;;23.50;62.15;101703.38;4988249;28;20023;-56
2023/09/10 06:30:59;;;;;;;13.40;12.10;;;;;;;23.50;62.17;101708.81;4991784;28;20401;-56
2023/09/10 06:33:24;;;;;;;18.50;16.02;;;;;;;23.49;63.04;101695.38;4994051;28;20121;-56
2023/09/10 06:35:50;;;;;;;23.20;20.48;;;;;;;23.49;63.58;101706.25;4992554;28;20085;-56
2023/09/10 06:38:15;;;;;;;30.10;24.48;;;;;;;23.48;63.50;101705.41;4993095;28;20038;-56
2023/09/10 06:40:40;;;;;;;27.23;24.35;;;;;;;23.48;63.92;101715.44;4994156;28;20384;-56
2023/09/10 06:43:08;;;;;;;31.15;26.73;;;;;;;23.48;64.18;101710.00;4991611;28;20460;-56
2023/09/10 06:45:33;;;;;;;34.33;30.63;;;;;;;23.47;63.98;101708.28;4991248;28;20695;-56
2023/09/10 06:47:59;;;;;;;29.17;25.75;;;;;;;23.47;64.03;101709.13;4990935;28;20030;-56
2023/09/10 06:50:24;;;;;;;24.75;22.23;;;;;;;23.49;63.59;101706.25;4985866;28;20109;-56
2023/09/10 06:52:49;;;;;;;29.48;25.70;;;;;;;23.51;64.25;101712.38;4986271;28;20515;-56
2023/09/10 06:55:15;;;;;;;32.80;29.27;;;;;;;23.52;64.95;101716.81;4985983;28;20476;-56
2023/09/10 06:57:40;;;;;;;39.42;31.88;;;;;;;23.52;65.12;101712.22;4987992;28;20117;-56
2023/09/10 07:00:06;;;;;;;35.28;31.00;;;;;;;23.53;65.19;101713.06;4990677;28;20113;-56
2023/09/10 07:02:32;;;;;;;34.00;26.83;;;;;;;23.54;64.87;101717.50;4992473;28;20035;-56
2023/09/10 07:04:57;;;;;;;33.58;28.17;;;;;;;23.54;64.71;101714.78;4992541;28;20042;-56
2023/09/10 07:07:22;;;;;;;36.42;29.83;;;;;;;23.55;64.92;101719.19;4992818;28;20073;-56
2023/09/10 07:09:48;;;;;;;26.02;23.20;;;;;;;23.53;64.13;101713.94;4992280;28;20061;-56
2023/09/10 07:12:13;;;;;;;33.35;26.42;;;;;;;23.54;64.41;101715.63;4990173;28;20030;-56
2023/09/10 07:14:38;;;;;;;28.63;25.15;;;;;;;23.54;64.32;101720.22;4986033;28;20126;-56
2023/09/10 07:17:05;;;;;;;30.17;26.08;;;;;;;23.55;64.48;101717.34;4987358;28;20216;-56
2023/09/10 07:19:30;;;;;;;30.90;25.35;;;;;;;23.52;64.39;101722.25;4987152;28;20038;-56
2023/09/10 07:21:57;;;;;;;34.50;29.20;;;;;;;23.51;64.98;101717.81;4986385;28;20038;-56
2023/09/10 07:24:22;;;;;;;37.85;29.95;;;;;;;23.48;65.62;101718.16;4986844;28;20465;-56
2023/09/10 07:26:47;;;;;;;36.22;32.00;;;;;;;23.45;65.42;101719.31;4986695;28;20039;-56
2023/09/10 07:29:16;;;;;;;39.75;33.47;;;;;;;23.42;66.18;101715.06;4987562;28;20092;-56
2023/09/10 07:31:42;;;;;;;42.40;34.45;;;;;;;23.41;66.45;101715.22;4986404;28;20063;-56
2023/09/10 07:34:07;;;;;;;39.17;33.40;;;;;;;23.40;66.39;101717.09;4986479;28;20113;-56
2023/09/10 07:36:33;;;;;;;39.47;33.53;;;;;;;23.41;66.63;101723.34;4986206;28;20162;-56
2023/09/10 07:38:59;;;;;;;43.13;33.53;;;;;;;23.40;66.50;101718.97;4985752;28;20033;-56
2023/09/10 07:41:24;;;;;;;38.88;32.95;;;;;;;23.39;66.90;101718.06;4987165;28;20038;-56
2023/09/10 07:43:50;;;;;;;38.40;32.75;;;;;;;23.40;66.61;101719.81;4987196;28;20055;-56
2023/09/10 07:46:15;;;;;;;42.90;32.90;;;;;;;23.40;67.05;101719.81;4992767;28;20500;-56
2023/09/10 07:48:40;;;;;;;41.20;33.83;;;;;;;23.40;67.37;101721.69;4991090;28;20416;-56
2023/09/10 07:51:06;;;;;;;38.67;32.33;;;;;;;23.42;67.02;101728.63;4984205;28;20057;-56
2023/09/10 07:53:32;;;;;;;35.28;29.83;;;;;;;23.43;67.29;101724.88;4992927;28;20037;-56
2023/09/10 07:55:58;;;;;;;42.47;31.63;;;;;;;23.43;67.66;101724.88;4986571;28;20026;-56
2023/09/10 07:58:24;;;;;;;37.15;29.08;;;;;;;23.44;67.38;101725.78;4987417;28;20049;-56
2023/09/10 08:00:53;;;;;;;37.60;29.40;;;;;;;23.45;67.28;101723.91;4987383;28;20478;-56
2023/09/10 08:03:18;;;;;;;37.13;28.45;;;;;;;23.46;67.57;101729.19;4987128;28;20088;-56
2023/09/10 08:05:44;;;;;;;36.13;26.55;;;;;;;23.48;67.11;101731.75;4987063;28;20042;-56
2023/09/10 08:08:09;;;;;;;34.15;26.88;;;;;;;23.49;67.03;101728.84;4985578;28;20480;-56
2023/09/10 08:10:34;;;;;;;34.72;26.27;;;;;;;23.51;66.65;101742.25;4985115;28;20495;-56
2023/09/10 08:13:03;;;;;;;33.03;27.60;;;;;;;23.53;67.74;101737.53;4987236;28;20031;-56
2023/09/10 08:15:28;;;;;;;32.08;26.05;;;;;;;23.53;67.40;101743.84;4984059;28;20078;-56
2023/09/10 08:17:55;;;;;;;31.42;25.80;;;;;;;23.56;67.87;101743.50;4985633;28;20054;-56
2023/09/10 08:20:22;;;;;;;31.08;26.05;;;;;;;23.56;67.99;101739.94;4985579;28;20405;-56
2023/09/10 08:22:47;;;;;;;33.33;25.48;;;;;;;23.58;67.90;101743.34;4984862;28;20061;-56
2023/09/10 08:25:13;;;;;;;28.30;24.95;;;;;;;23.60;68.06;101736.72;4987895;28;20068;-56
2023/09/10 08:27:39;;;;;;;33.80;25.13;;;;;;;23.61;67.80;101724.84;4986819;28;20033;-56
2023/09/10 08:30:06;;;;;;;29.75;24.88;;;;;;;23.64;68.07;101728.25;4993347;28;20399;-56
2023/09/10 08:32:32;;;;;;;25.27;22.52;;;;;;;23.65;68.18;101733.53;4986674;28;20126;-56
2023/09/10 08:34:58;;;;;;;26.75;22.60;;;;;;;23.67;68.46;101730.66;4986232;28;20047;-56
2023/09/10 08:37:23;;;;;;;26.88;22.40;;;;;;;23.68;68.07;101725.03;4988542;28;20046;-56
2023/09/10 08:39:49;;;;;;;28.55;22.65;;;;;;;23.70;68.14;101720.28;4985245;28;20035;-56
2023/09/10 08:42:37;;;;;;;26.67;21.70;;;;;;;23.71;68.04;101722.00;4985880;28;20038;-56
2023/09/10 08:45:07;;;;;;;26.92;20.60;;;;;;;23.73;67.78;101725.41;4986685;28;20426;-56
2023/09/10 08:47:39;;;;;;;23.05;20.20;;;;;;;23.74;68.00;101723.50;4986829;28;20069;-56
2023/09/10 08:50:11;;;;;;;25.15;19.98;;;;;;;23.75;68.08;101725.25;4988353;28;20026;-56
2023/09/10 08:52:44;;;;;;;25.95;19.67;;;;;;;23.76;67.90;101725.09;4988937;28;20074;-56
2023/09/10 08:55:11;;;;;;;25.02;20.27;;;;;;;23.76;68.16;101725.09;4984583;28;20041;-56
2023/09/10 08:57:39;;;;;;;23.23;20.05;;;;;;;23.78;68.44;101727.63;4991193;28;20034;-56
2023/09/10 09:00:12;;;;;;;22.92;18.98;;;;;;;23.79;68.26;101724.75;4988528;28;20121;-56
2023/09/10 09:02:39;;;;;;;22.75;18.05;;;;;;;23.79;68.18;101734.81;4991194;28;20044;-56
2023/09/10 09:05:05;;;;;;;21.15;18.15;;;;;;;23.79;68.30;101727.47;4991142;28;20030;-56
2023/09/10 09:07:36;;;;;;;24.65;18.38;;;;;;;23.81;68.43;101732.75;4991351;28;20089;-56
2023/09/10 09:10:05;;;;;;;21.95;19.60;;;;;;;23.80;68.09;101726.47;4989925;28;20022;-56
2023/09/10 09:12:32;;;;;;;20.23;18.13;;;;;;;23.82;68.33;101729.03;4988335;28;20165;-56
2023/09/10 09:15:01;;;;;;;21.75;19.17;;;;;;;23.81;68.46;101724.59;4988006;28;20042;-56
2023/09/10 09:17:28;;;;;;;20.67;17.25;;;;;;;23.83;68.32;101716.28;4987927;28;20035;-56
2023/09/10 09:19:56;;;;;;;20.98;17.42;;;;;;;23.82;68.47;101718.16;4988531;28;20030;-56
2023/09/10 09:22:23;;;;;;;21.10;16.90;;;;;;;23.83;68.14;101722.56;4988763;28;20089;-56
2023/09/10 09:24:49;;;;;;;22.55;17.55;;;;;;;23.83;68.07;101722.56;4988441;28;20061;-56
2023/09/10 09:27:15;;;;;;;20.90;16.10;;;;;;;23.84;68.15;101715.25;4989390;28;20481;-56
2023/09/10 09:29:41;;;;;;;19.77;14.45;;;;;;;23.85;68.00;101722.41;4989337;28;20042;-56
2023/09/10 09:32:07;;;;;;;17.70;15.10;;;;;;;23.86;68.26;101714.09;4989493;28;20490;-56
2023/09/10 09:34:33;;;;;;;16.98;14.25;;;;;;;23.86;68.17;101708.66;4988751;28;20473;-56
2023/09/10 09:36:58;;;;;;;23.33;15.38;;;;;;;23.86;68.49;101719.53;4990131;28;20042;-56
2023/09/10 09:39:24;;;;;;;18.77;13.95;;;;;;;23.87;68.08;101709.50;4989487;28;20035;-56
2023/09/10 09:41:53;;;;;;;18.90;14.00;;;;;;;23.87;68.42;101720.38;4991870;28;20045;-56
2023/09/10 09:44:19;;;;;;;17.33;13.48;;;;;;;23.88;68.61;101706.63;4990675;28;20064;-56
2023/09/10 09:46:47;;;;;;;18.15;13.40;;;;;;;23.89;68.57;101702.88;4989376;28;20109;-55
2023/09/10 09:49:12;;;;;;;15.95;13.43;;;;;;;23.91;68.70;101700.00;4989140;28;20033;-55
2023/09/10 09:51:40;;;;;;;17.33;13.25;;;;;;;23.91;68.76;101705.44;4988700;28;20120;-56
2023/09/10 09:54:07;;;;;;;16.88;12.82;;;;;;;23.91;68.83;101705.44;4988833;28;20026;-56
2023/09/10 09:56:32;;;;;;;15.77;13.43;;;;;;;23.92;68.78;101701.72;4988207;28;20164;-55
2023/09/10 09:58:58;;;;;;;15.63;13.90;;;;;;;23.93;68.69;101692.50;4988001;28;20673;-56
2023/09/10 10:01:24;;;;;;;25.70;13.68;;;;;;;23.96;70.58;101692.19;4988214;28;20046;-55
2023/09/10 10:03:50;;;;;;;15.85;13.73;;;;;;;23.97;70.25;101700.19;4988163;28;20484;-55
2023/09/10 10:06:18;;;;;;;21.55;13.98;;;;;;;24.00;70.72;101696.28;4987669;28;20452;-56
2023/09/10 10:08:51;;;;;;;17.63;13.00;;;;;;;24.02;70.04;101696.13;4988472;28;20038;-56
2023/09/10 10:11:27;;;;;;;20.50;12.68;;;;;;;24.02;70.46;101691.53;4987260;28;20429;-56
2023/09/10 10:13:53;;;;;;;18.10;12.45;;;;;;;24.03;70.30;101692.38;4987377;28;20030;-56
2023/09/10 10:16:19;;;;;;;18.20;12.30;;;;;;;24.03;70.70;101693.25;4987692;28;20038;-56
2023/09/10 10:18:45;;;;;;;21.35;13.85;;;;;;;24.05;70.87;101690.38;4987637;28;20038;-56
2023/09/10 10:21:12;;;;;;;22.38;15.15;;;;;;;24.05;71.07;101685.75;4987347;28;20042;-55
2023/09/10 10:23:38;;;;;;;22.52;16.17;;;;;;;24.06;71.54;101686.59;4987811;28;20042;-55
2023/09/10 10:26:05;;;;;;;21.45;15.60;;;;;;;24.07;71.37;101683.72;4989429;28;20034;-56
2023/09/10 10:28:33;;;;;;;19.02;14.20;;;;;;;24.09;71.45;101686.28;4996725;28;20025;-56
2023/09/10 10:31:18;;;;;;;18.42;14.10;;;;;;;24.11;71.01;101684.25;4988506;28;20411;-56
2023/09/10 10:33:54;;;;;;;19.33;14.15;;;;;;;24.10;70.71;101675.22;4991199;28;20030;-56
2023/09/10 10:36:30;;;;;;;13.68;12.27;;;;;;;24.11;70.75;101679.66;5004662;28;20058;-56
2023/09/10 10:38:56;;;;;;;17.23;12.05;;;;;;;24.11;70.35;101679.66;4993431;28;20481;-56
2023/09/10 10:41:25;;;;;;;13.70;11.88;;;;;;;24.12;69.90;101675.94;4993307;28;20088;-56
2023/09/10 10:44:02;;;;;;;16.73;11.85;;;;;;;24.13;69.60;101680.34;4993141;28;20112;-56
2023/09/10 10:46:32;;;;;;;13.63;10.73;;;;;;;24.14;69.59;101678.44;4992010;28;20034;-56
2023/09/10 10:49:00;;;;;;;14.52;10.75;;;;;;;24.14;69.06;101673.00;4993356;28;20045;-56
2023/09/10 10:51:27;;;;;;;16.80;12.30;;;;;;;24.13;69.32;101676.78;4990289;28;20058;-56
2023/09/10 10:53:53;;;;;;;13.23;11.32;;;;;;;24.14;68.96;101671.16;4992636;28;20034;-56
2023/09/10 10:56:19;;;;;;;16.30;10.95;;;;;;;24.15;68.65;101674.72;4992261;28;20081;-56
2023/09/10 10:58:44;;;;;;;15.13;10.75;;;;;;;24.16;68.79;101668.25;4991874;28;20038;-56
2023/09/10 11:01:11;;;;;;;15.52;10.43;;;;;;;24.16;68.59;101666.41;4992119;28;20109;-56
2023/09/10 11:03:37;;;;;;;15.48;11.05;;;;;;;24.15;68.57;101664.69;4990103;28;20120;-56
2023/09/10 11:06:04;;;;;;;11.27;10.07;;;;;;;24.15;68.30;101664.69;4991484;28;20049;-56
2023/09/10 11:08:45;;;;;;;14.30;10.45;;;;;;;24.17;68.49;101668.09;4993676;28;20030;-56